createdAt,value
2023-06-07T00:00:11.347Z,53.08
2023-06-07T00:02:44.621Z,53.31
2023-06-07T00:05:14.493Z,54.25
2023-06-07T00:07:42.227Z,54.42
2023-06-07T00:10:09.419Z,54.68
2023-06-07T00:12:36.320Z,54.65
2023-06-07T00:15:03.664Z,54.73
2023-06-07T00:17:31.652Z,54.65
2023-06-07T00:19:58.710Z,54.56
2023-06-07T00:22:26.531Z,54.35
2023-06-07T00:24:53.699Z,54.33
2023-06-07T00:27:21.058Z,54.21
2023-06-07T00:29:48.020Z,54.01
2023-06-07T00:32:15.177Z,53.73
2023-06-07T00:34:42.152Z,53.32
2023-06-07T00:37:09.197Z,53.18
2023-06-07T00:39:36.444Z,53.61
2023-06-07T00:42:04.935Z,53.07
2023-06-07T00:44:31.963Z,53.37
2023-06-07T00:46:59.171Z,53.81
2023-06-07T00:49:26.047Z,53.67
2023-06-07T00:51:53.300Z,53.45
2023-06-07T00:54:20.774Z,53.52
2023-06-07T00:56:51.008Z,53.77
2023-06-07T00:59:21.693Z,53.36
2023-06-07T01:01:49.933Z,53.35
2023-06-07T01:04:19.528Z,53.35
2023-06-07T01:06:46.644Z,53.03
2023-06-07T01:09:15.240Z,52.97
2023-06-07T01:11:44.085Z,52.96
2023-06-07T01:14:12.271Z,53.08
2023-06-07T01:16:41.086Z,53.04
2023-06-07T01:19:08.026Z,52.88
2023-06-07T01:21:36.767Z,53.16
2023-06-07T01:24:04.582Z,53.25
2023-06-07T01:26:32.022Z,53.08
2023-06-07T01:29:07.099Z,53.17
2023-06-07T01:31:37.023Z,53.06
2023-06-07T01:34:04.988Z,53.02
2023-06-07T01:36:33.000Z,53.00
2023-06-07T01:39:01.279Z,52.72
2023-06-07T01:41:29.819Z,52.47
2023-06-07T01:43:58.851Z,52.48
2023-06-07T01:46:27.701Z,52.49
2023-06-07T01:48:55.274Z,52.15
2023-06-07T01:51:23.018Z,52.47
2023-06-07T01:53:53.250Z,52.47
2023-06-07T01:56:41.265Z,52.60
2023-06-07T02:02:31.715Z,52.73
2023-06-07T02:05:03.948Z,52.53
2023-06-07T02:07:37.128Z,52.42
2023-06-07T02:10:04.927Z,52.61
2023-06-07T02:12:34.277Z,52.52
2023-06-07T02:15:01.835Z,52.68
2023-06-07T02:17:30.133Z,52.49
2023-06-07T02:19:57.940Z,52.83
2023-06-07T02:22:24.898Z,52.82
2023-06-07T02:24:52.292Z,52.67
2023-06-07T02:27:19.111Z,52.75
2023-06-07T02:29:46.077Z,52.60
2023-06-07T02:32:12.842Z,52.45
2023-06-07T02:34:40.739Z,52.46
2023-06-07T02:37:07.605Z,52.55
2023-06-07T02:39:34.471Z,52.56
2023-06-07T02:42:01.317Z,52.16
2023-06-07T02:44:29.548Z,52.06
2023-06-07T02:46:58.310Z,52.31
2023-06-07T02:49:25.231Z,52.06
2023-06-07T02:51:53.914Z,52.09
2023-06-07T02:54:20.740Z,52.34
2023-06-07T02:56:48.531Z,51.87
2023-06-07T02:59:15.415Z,52.22
2023-06-07T03:01:44.971Z,51.98
2023-06-07T03:04:12.863Z,51.82
2023-06-07T03:06:42.911Z,51.72
2023-06-07T03:09:25.059Z,51.78
2023-06-07T03:11:52.273Z,51.79
2023-06-07T03:14:20.816Z,52.16
2023-06-07T03:16:49.941Z,52.17
2023-06-07T03:19:17.164Z,52.18
2023-06-07T03:21:45.970Z,52.01
2023-06-07T03:24:18.279Z,52.25
2023-06-07T03:26:46.186Z,52.24
2023-06-07T03:29:16.040Z,52.17
2023-06-07T03:31:43.136Z,51.99
2023-06-07T03:34:14.170Z,52.00
2023-06-07T03:36:41.487Z,51.91
2023-06-07T03:39:11.136Z,52.18
2023-06-07T03:41:38.191Z,52.31
2023-06-07T03:44:07.750Z,52.20
2023-06-07T03:46:35.741Z,52.28
2023-06-07T03:49:03.162Z,52.62
2023-06-07T03:51:31.687Z,52.85
2023-06-07T03:54:00.805Z,52.65
2023-06-07T03:56:28.595Z,52.58
2023-06-07T03:58:56.175Z,52.67
2023-06-07T04:01:27.202Z,53.00
2023-06-07T04:03:57.307Z,52.85
2023-06-07T04:06:27.427Z,52.70
2023-06-07T04:08:54.998Z,52.80
2023-06-07T04:11:22.948Z,52.79
2023-06-07T04:13:49.869Z,53.00
2023-06-07T04:16:17.265Z,52.95
2023-06-07T04:18:46.426Z,52.59
2023-06-07T04:21:14.676Z,52.99
2023-06-07T04:23:43.927Z,52.77
2023-06-07T04:26:19.960Z,52.84
2023-06-07T04:28:47.696Z,52.86
2023-06-07T04:31:16.505Z,52.87
2023-06-07T04:33:46.873Z,52.38
2023-06-07T04:36:15.679Z,52.56
2023-06-07T04:38:57.452Z,52.40
2023-06-07T04:41:34.508Z,52.52
2023-06-07T04:44:04.725Z,52.59
2023-06-07T04:46:40.903Z,52.24
2023-06-07T04:49:14.173Z,52.47
2023-06-07T04:51:41.370Z,52.18
2023-06-07T04:54:12.013Z,52.05
2023-06-07T04:56:43.827Z,52.09
2023-06-07T04:59:11.555Z,51.95
2023-06-07T05:01:39.533Z,51.71
2023-06-07T05:04:08.393Z,51.52
2023-06-07T05:06:42.079Z,51.63
2023-06-07T05:09:09.628Z,51.41
2023-06-07T05:11:37.813Z,50.88
2023-06-07T05:14:08.256Z,50.93
2023-06-07T05:16:43.455Z,50.60
2023-06-07T05:19:12.418Z,50.67
2023-06-07T05:21:42.982Z,50.57
2023-06-07T05:24:10.916Z,50.18
2023-06-07T05:26:38.020Z,50.00
2023-06-07T05:29:04.901Z,50.21
2023-06-07T05:31:33.177Z,50.46
2023-06-07T05:34:00.168Z,49.83
2023-06-07T05:36:29.032Z,49.27
2023-06-07T05:38:56.305Z,49.14
2023-06-07T05:41:23.482Z,49.34
2023-06-07T05:43:50.444Z,49.50
2023-06-07T05:46:17.370Z,49.48
2023-06-07T05:48:45.761Z,49.40
2023-06-07T05:51:15.693Z,49.37
2023-06-07T05:53:42.568Z,49.16
2023-06-07T05:56:11.459Z,49.00
2023-06-07T05:58:38.449Z,49.34
2023-06-07T06:01:06.536Z,48.92
2023-06-07T06:03:33.500Z,49.02
2023-06-07T06:06:00.607Z,48.84
2023-06-07T06:08:27.486Z,49.48
2023-06-07T06:10:54.331Z,49.35
2023-06-07T06:13:21.613Z,49.85
2023-06-07T06:15:48.579Z,49.26
2023-06-07T06:18:16.243Z,49.17
2023-06-07T06:20:46.625Z,49.26
2023-06-07T06:23:13.736Z,49.52
2023-06-07T06:25:41.024Z,49.68
2023-06-07T06:28:08.438Z,49.52
2023-06-07T06:30:35.671Z,49.75
2023-06-07T06:33:04.017Z,49.55
2023-06-07T06:35:34.081Z,49.69
2023-06-07T06:38:01.208Z,49.20
2023-06-07T06:40:28.476Z,49.64
2023-06-07T06:42:55.429Z,49.79
2023-06-07T06:45:30.191Z,49.36
2023-06-07T06:47:59.741Z,48.94
2023-06-07T06:52:57.133Z,48.63
2023-06-07T06:55:24.561Z,48.40
2023-06-07T06:57:51.631Z,48.13
2023-06-07T07:00:18.968Z,47.61
2023-06-07T07:02:47.207Z,47.28
2023-06-07T07:05:15.187Z,46.93
2023-06-07T07:07:42.226Z,47.10
2023-06-07T07:10:09.854Z,46.25
2023-06-07T07:12:40.579Z,45.92
2023-06-07T07:15:07.844Z,45.80
2023-06-07T07:17:34.940Z,45.87
2023-06-07T07:20:02.026Z,45.08
2023-06-07T07:22:29.414Z,45.10
2023-06-07T07:24:59.468Z,44.92
2023-06-07T07:27:26.462Z,44.65
2023-06-07T07:29:53.606Z,44.20
2023-06-07T07:32:20.552Z,44.42
2023-06-07T07:34:47.610Z,44.20
2023-06-07T07:37:15.704Z,43.39
2023-06-07T07:39:42.639Z,43.07
2023-06-07T07:42:09.975Z,42.73
2023-06-07T07:44:36.914Z,42.31
2023-06-07T07:47:05.217Z,42.00
2023-06-07T07:49:33.131Z,41.66
2023-06-07T07:52:01.957Z,41.08
2023-06-07T07:54:30.904Z,40.76
2023-06-07T07:56:58.006Z,40.41
2023-06-07T07:59:25.981Z,40.83
2023-06-07T08:01:53.172Z,40.48
2023-06-07T08:04:20.418Z,40.38
2023-06-07T08:06:47.489Z,40.20
2023-06-07T08:09:15.757Z,39.69
2023-06-07T08:11:42.803Z,40.17
2023-06-07T08:14:09.729Z,39.78
2023-06-07T08:16:36.789Z,40.00
2023-06-07T08:19:10.346Z,40.19
2023-06-07T08:21:45.170Z,39.64
2023-06-07T08:24:14.852Z,39.63
2023-06-07T08:26:44.021Z,39.79
2023-06-07T08:29:11.511Z,40.01
2023-06-07T08:31:44.983Z,39.82
2023-06-07T08:34:12.411Z,39.84
2023-06-07T08:36:41.185Z,39.84
2023-06-07T08:39:09.492Z,40.01
2023-06-07T08:41:40.682Z,40.09
2023-06-07T08:44:07.992Z,40.49
2023-06-07T08:46:35.488Z,40.00
2023-06-07T08:49:03.700Z,39.35
2023-06-07T08:51:37.737Z,39.51
2023-06-07T08:54:06.085Z,39.64
2023-06-07T08:56:34.004Z,39.24
2023-06-07T08:59:03.697Z,38.99
2023-06-07T09:01:32.387Z,38.58
2023-06-07T09:04:00.086Z,39.03
2023-06-07T09:06:28.192Z,39.15
2023-06-07T09:08:55.471Z,39.33
2023-06-07T09:11:23.380Z,39.01
2023-06-07T09:13:51.105Z,39.14
2023-06-07T09:16:20.460Z,39.83
2023-06-07T09:18:56.941Z,39.60
2023-06-07T09:21:29.210Z,39.28
2023-06-07T09:23:59.731Z,39.23
2023-06-07T09:26:42.137Z,39.12
2023-06-07T09:29:09.555Z,39.07
2023-06-07T09:31:39.219Z,38.56
2023-06-07T09:34:26.602Z,38.78
2023-06-07T09:37:00.532Z,37.96
2023-06-07T09:39:29.642Z,38.35
2023-06-07T09:41:58.380Z,38.05
2023-06-07T09:44:27.720Z,37.64
2023-06-07T09:46:55.614Z,38.07
2023-06-07T09:49:27.885Z,37.49
2023-06-07T09:51:55.309Z,37.38
2023-06-07T09:54:37.912Z,37.42
2023-06-07T09:57:10.440Z,37.45
2023-06-07T09:59:39.040Z,37.59
2023-06-07T10:02:25.853Z,37.54
2023-06-07T10:04:57.264Z,37.28
2023-06-07T10:07:28.676Z,37.24
2023-06-07T10:09:58.873Z,37.22
2023-06-07T10:12:30.629Z,36.79
2023-06-07T10:15:02.707Z,37.06
2023-06-07T10:17:35.472Z,36.75
2023-06-07T10:20:06.025Z,36.28
2023-06-07T10:22:38.158Z,36.42
2023-06-07T10:25:11.868Z,36.19
2023-06-07T10:28:14.284Z,35.42
2023-06-07T10:30:55.092Z,35.68
2023-06-07T10:33:25.037Z,35.38
2023-06-07T10:35:52.194Z,35.17
2023-06-07T10:38:20.467Z,35.53
2023-06-07T10:40:47.696Z,35.45
2023-06-07T10:43:14.842Z,35.32
2023-06-07T10:45:42.150Z,35.06
2023-06-07T10:48:38.906Z,34.98
2023-06-07T10:51:06.685Z,35.58
2023-06-07T10:53:50.385Z,35.83
2023-06-07T10:56:37.129Z,35.70
2023-06-07T10:59:16.705Z,35.68
2023-06-07T11:01:48.254Z,35.27
2023-06-07T11:04:39.597Z,35.14
2023-06-07T11:07:32.351Z,35.38
2023-06-07T11:10:06.555Z,35.33
2023-06-07T11:12:37.645Z,34.82
2023-06-07T11:15:26.733Z,34.54
2023-06-07T11:17:58.082Z,35.10
2023-06-07T11:20:37.706Z,35.08
2023-06-07T11:23:32.593Z,34.71
2023-06-07T11:26:12.200Z,34.68
2023-06-07T11:28:41.275Z,34.43
2023-06-07T11:31:12.953Z,34.48
2023-06-07T11:33:44.199Z,33.96
2023-06-07T11:36:13.021Z,34.09
2023-06-07T11:38:40.565Z,33.64
2023-06-07T11:41:07.903Z,33.60
2023-06-07T11:43:35.179Z,33.35
2023-06-07T11:46:02.177Z,33.06
2023-06-07T11:48:30.722Z,33.31
2023-06-07T11:50:58.944Z,32.96
2023-06-07T11:53:30.600Z,33.20
2023-06-07T11:56:02.126Z,33.19
2023-06-07T11:58:29.554Z,33.02
2023-06-07T12:00:57.928Z,32.98
2023-06-07T12:03:28.124Z,32.38
2023-06-07T12:05:55.434Z,32.57
2023-06-07T12:08:24.041Z,31.85
2023-06-07T12:10:55.234Z,31.98
2023-06-07T12:13:23.487Z,32.26
2023-06-07T12:15:51.265Z,32.51
2023-06-07T12:18:21.409Z,32.16
2023-06-07T12:20:49.059Z,31.69
2023-06-07T12:23:16.740Z,31.69
2023-06-07T12:25:43.801Z,31.25
2023-06-07T12:28:13.556Z,31.19
2023-06-07T12:30:42.250Z,31.56
2023-06-07T12:33:16.622Z,31.51
2023-06-07T12:35:48.168Z,31.19
2023-06-07T12:38:15.720Z,31.24
2023-06-07T12:40:42.667Z,31.05
2023-06-07T12:43:09.881Z,30.93
2023-06-07T12:45:36.880Z,30.39
2023-06-07T12:48:04.264Z,30.59
2023-06-07T12:50:31.198Z,30.71
2023-06-07T12:52:58.420Z,30.89
2023-06-07T12:55:25.767Z,30.67
2023-06-07T12:57:52.814Z,30.84
2023-06-07T13:00:20.091Z,30.69
2023-06-07T13:02:47.043Z,30.54
2023-06-07T13:05:14.268Z,30.34
2023-06-07T13:07:41.466Z,30.14
2023-06-07T13:10:09.606Z,29.86
2023-06-07T13:12:36.886Z,29.27
2023-06-07T13:15:04.525Z,29.34
2023-06-07T13:17:32.292Z,29.21
2023-06-07T13:19:59.532Z,29.11
2023-06-07T13:22:26.811Z,28.68
2023-06-07T13:24:55.718Z,28.48
2023-06-07T13:27:22.681Z,28.72
2023-06-07T13:29:49.679Z,28.82
2023-06-07T13:32:17.248Z,28.72
2023-06-07T13:34:44.433Z,28.66
2023-06-07T13:37:11.225Z,28.29
2023-06-07T13:39:38.103Z,28.35
2023-06-07T13:42:05.250Z,28.10
2023-06-07T13:44:32.259Z,28.04
2023-06-07T13:46:59.440Z,27.95
2023-06-07T13:49:26.477Z,27.91
2023-06-07T13:51:53.954Z,27.58
2023-06-07T13:54:30.313Z,26.89
2023-06-07T13:56:57.128Z,27.15
2023-06-07T13:59:25.455Z,27.11
2023-06-07T14:01:56.447Z,27.53
2023-06-07T14:04:23.567Z,27.20
2023-06-07T14:06:54.219Z,27.14
2023-06-07T14:09:21.413Z,27.28
2023-06-07T14:11:48.824Z,27.79
2023-06-07T14:14:16.242Z,27.25
2023-06-07T14:16:43.512Z,27.22
2023-06-07T14:19:10.390Z,27.10
2023-06-07T14:21:37.367Z,26.80
2023-06-07T14:24:04.577Z,27.16
2023-06-07T14:26:31.658Z,27.42
2023-06-07T14:28:58.607Z,27.87
2023-06-07T14:31:25.602Z,28.32
2023-06-07T14:33:53.282Z,28.37
2023-06-07T14:36:20.637Z,28.82
2023-06-07T14:38:47.810Z,29.19
2023-06-07T14:41:17.579Z,28.49
2023-06-07T14:43:44.690Z,28.86
2023-06-07T14:46:11.809Z,28.99
2023-06-07T14:48:39.007Z,28.81
2023-06-07T14:51:06.266Z,29.31
2023-06-07T14:53:33.132Z,29.30
2023-06-07T14:56:00.214Z,29.33
2023-06-07T14:58:27.125Z,29.74
2023-06-07T15:00:54.113Z,29.96
2023-06-07T15:03:21.077Z,30.05
2023-06-07T15:05:48.094Z,30.26
2023-06-07T15:08:15.219Z,30.67
2023-06-07T15:10:42.174Z,30.85
2023-06-07T15:13:09.126Z,31.29
2023-06-07T15:15:37.200Z,30.81
2023-06-07T15:18:04.531Z,30.57
2023-06-07T15:20:31.489Z,30.88
2023-06-07T15:22:58.503Z,31.00
2023-06-07T15:25:27.017Z,31.03
2023-06-07T15:27:53.878Z,30.81
2023-06-07T15:30:20.853Z,31.03
2023-06-07T15:32:47.767Z,31.37
2023-06-07T15:35:14.722Z,31.89
2023-06-07T15:37:42.009Z,31.56
2023-06-07T15:43:18.565Z,31.05
2023-06-07T15:49:19.349Z,30.73
2023-06-07T15:51:56.540Z,30.62
2023-06-07T15:54:23.913Z,30.91
2023-06-07T15:56:51.028Z,31.09
2023-06-07T15:59:17.928Z,31.28
2023-06-07T16:01:44.855Z,31.83
2023-06-07T16:04:12.749Z,31.90
2023-06-07T16:06:40.476Z,31.47
2023-06-07T16:09:10.422Z,31.59
2023-06-07T16:11:39.890Z,31.79
2023-06-07T16:14:08.546Z,32.07
2023-06-07T16:16:35.660Z,32.01
2023-06-07T16:19:03.996Z,31.48
2023-06-07T16:21:30.861Z,31.32
2023-06-07T16:24:03.502Z,31.31
2023-06-07T16:26:31.721Z,31.53
2023-06-07T16:28:58.652Z,31.64
2023-06-07T16:31:27.188Z,31.46
2023-06-07T16:33:54.154Z,31.90
2023-06-07T16:36:21.456Z,31.48
2023-06-07T16:38:48.535Z,31.91
2023-06-07T16:41:15.418Z,31.80
2023-06-07T16:43:42.312Z,31.99
2023-06-07T16:46:09.306Z,32.34
2023-06-07T16:48:36.300Z,32.44
2023-06-07T16:51:03.152Z,32.24
2023-06-07T16:53:30.122Z,32.60
2023-06-07T16:55:57.477Z,32.37
2023-06-07T16:58:24.595Z,32.29
2023-06-07T17:00:51.991Z,32.79
2023-06-07T17:03:19.089Z,32.97
2023-06-07T17:05:46.233Z,32.76
2023-06-07T17:08:14.657Z,32.85
2023-06-07T17:10:46.029Z,32.91
2023-06-07T17:13:13.020Z,32.97
2023-06-07T17:15:39.953Z,32.86
2023-06-07T17:18:06.898Z,32.67
2023-06-07T17:20:33.920Z,32.77
2023-06-07T17:23:00.975Z,33.03
2023-06-07T17:25:27.934Z,33.21
2023-06-07T17:27:54.875Z,33.09
2023-06-07T17:30:21.806Z,32.71
2023-06-07T17:32:48.975Z,32.82
2023-06-07T17:35:16.190Z,33.13
2023-06-07T17:37:43.059Z,33.12
2023-06-07T17:40:10.669Z,33.57
2023-06-07T17:42:37.516Z,33.58
2023-06-07T17:45:06.118Z,33.60
2023-06-07T17:47:52.772Z,34.12
2023-06-07T17:50:32.908Z,33.80
2023-06-07T17:53:09.394Z,33.95
2023-06-07T17:55:36.349Z,34.01
2023-06-07T17:58:03.282Z,34.43
2023-06-07T18:00:30.234Z,34.15
2023-06-07T18:02:57.181Z,34.30
2023-06-07T18:05:24.243Z,34.45
2023-06-07T18:07:52.176Z,34.55
2023-06-07T18:10:19.007Z,35.23
2023-06-07T18:12:45.902Z,35.40
2023-06-07T18:15:13.324Z,35.08
2023-06-07T18:17:41.044Z,35.69
2023-06-07T18:20:09.191Z,35.69
2023-06-07T18:22:36.288Z,36.15
2023-06-07T18:25:03.285Z,36.20
2023-06-07T18:27:30.831Z,36.71
2023-06-07T18:29:58.641Z,36.95
2023-06-07T18:32:25.540Z,37.10
2023-06-07T18:34:53.209Z,37.12
2023-06-07T18:37:20.199Z,37.14
2023-06-07T18:39:47.105Z,37.28
2023-06-07T18:42:15.764Z,37.61
2023-06-07T18:44:43.607Z,37.99
2023-06-07T18:47:10.559Z,38.14
2023-06-07T18:49:37.546Z,37.94
2023-06-07T18:52:11.140Z,38.09
2023-06-07T18:54:38.708Z,37.82
2023-06-07T18:57:07.613Z,37.83
2023-06-07T18:59:34.546Z,37.66
2023-06-07T19:02:02.119Z,37.77
2023-06-07T19:04:30.325Z,37.94
2023-06-07T19:06:57.380Z,37.78
2023-06-07T19:09:24.357Z,38.08
2023-06-07T19:11:51.253Z,37.77
2023-06-07T19:14:19.807Z,37.82
2023-06-07T19:16:47.348Z,38.02
2023-06-07T19:19:14.369Z,38.34
2023-06-07T19:21:41.332Z,38.60
2023-06-07T19:24:08.983Z,38.42
2023-06-07T19:26:36.054Z,38.47
2023-06-07T19:29:04.270Z,38.34
2023-06-07T19:31:31.390Z,38.16
2023-06-07T19:33:58.391Z,38.56
2023-06-07T19:36:25.365Z,38.73
2023-06-07T19:38:54.038Z,38.33
2023-06-07T19:41:21.206Z,38.83
2023-06-07T19:43:48.111Z,39.21
2023-06-07T19:46:15.051Z,39.30
2023-06-07T19:48:41.990Z,39.32
2023-06-07T19:51:10.449Z,39.49
2023-06-07T19:53:37.600Z,39.26
2023-06-07T19:56:05.227Z,39.48
2023-06-07T19:58:32.335Z,39.56
2023-06-07T20:00:59.261Z,39.46
2023-06-07T20:03:26.236Z,39.63
2023-06-07T20:05:53.196Z,39.75
2023-06-07T20:08:20.183Z,39.67
2023-06-07T20:10:47.093Z,39.77
2023-06-07T20:13:18.258Z,40.15
2023-06-07T20:15:46.211Z,40.13
2023-06-07T20:18:13.126Z,40.31
2023-06-07T20:20:40.993Z,40.20
2023-06-07T20:23:08.043Z,40.24
2023-06-07T20:25:34.972Z,40.27
2023-06-07T20:28:02.046Z,40.31
2023-06-07T20:30:28.987Z,40.60
2023-06-07T20:32:56.143Z,40.21
2023-06-07T20:35:23.245Z,40.30
2023-06-07T20:37:50.701Z,40.68
2023-06-07T20:40:17.903Z,40.81
2023-06-07T20:42:44.806Z,40.99
2023-06-07T20:45:13.993Z,40.73
2023-06-07T20:47:41.429Z,40.88
2023-06-07T20:50:09.663Z,41.03
2023-06-07T20:52:36.556Z,41.05
2023-06-07T20:55:04.392Z,40.92
2023-06-07T20:57:31.597Z,41.23
2023-06-07T21:00:01.931Z,41.53
2023-06-07T21:02:29.065Z,41.56
2023-06-07T21:04:56.391Z,41.37
2023-06-07T21:07:23.418Z,41.29
2023-06-07T21:09:50.317Z,41.16
2023-06-07T21:12:17.302Z,41.26
2023-06-07T21:14:44.514Z,41.33
2023-06-07T21:17:11.760Z,41.49
2023-06-07T21:19:38.789Z,41.59
2023-06-07T21:22:06.823Z,41.77
2023-06-07T21:24:33.867Z,41.54
2023-06-07T21:27:00.931Z,41.72
2023-06-07T21:29:28.108Z,41.96
2023-06-07T21:31:55.369Z,42.26
2023-06-07T21:34:22.233Z,42.60
2023-06-07T21:36:49.254Z,42.67
2023-06-07T21:39:16.105Z,42.54
2023-06-07T21:41:43.100Z,42.43
2023-06-07T21:44:10.037Z,42.35
2023-06-07T21:46:37.052Z,42.54
2023-06-07T21:49:03.953Z,42.45
2023-06-07T21:51:30.864Z,42.56
2023-06-07T21:53:57.809Z,42.52
2023-06-07T21:56:24.705Z,42.92
2023-06-07T21:58:51.662Z,42.90
2023-06-07T22:01:18.519Z,43.34
2023-06-07T22:03:45.789Z,43.51
2023-06-07T22:06:13.816Z,43.38
2023-06-07T22:08:41.005Z,43.81
2023-06-07T22:11:07.923Z,43.73
2023-06-07T22:13:38.355Z,43.63
2023-06-07T22:16:06.056Z,44.13
2023-06-07T22:18:36.730Z,44.08
2023-06-07T22:21:04.468Z,44.29
2023-06-07T22:23:32.771Z,44.23
2023-06-07T22:26:02.842Z,44.28
2023-06-07T22:28:32.370Z,44.24
2023-06-07T22:30:59.895Z,44.08
2023-06-07T22:33:27.130Z,44.15
2023-06-07T22:35:58.694Z,44.37
2023-06-07T22:38:27.448Z,44.67
2023-06-07T22:40:55.883Z,44.29
2023-06-07T22:43:23.084Z,44.59
2023-06-07T22:45:50.132Z,44.41
2023-06-07T22:48:17.411Z,44.28
2023-06-07T22:50:44.632Z,44.67
2023-06-07T22:53:13.841Z,44.78
2023-06-07T22:55:44.450Z,44.63
2023-06-07T22:58:11.587Z,44.92
2023-06-07T23:00:41.104Z,44.92
2023-06-07T23:03:08.717Z,45.02
2023-06-07T23:05:36.643Z,45.08
2023-06-07T23:08:04.280Z,45.04
2023-06-07T23:10:37.312Z,45.11
2023-06-07T23:13:10.695Z,44.89
2023-06-07T23:15:43.628Z,45.15
2023-06-07T23:18:12.286Z,44.98
2023-06-07T23:20:42.804Z,45.47
2023-06-07T23:23:11.537Z,45.48
2023-06-07T23:25:38.770Z,45.32
2023-06-07T23:28:07.218Z,45.25
2023-06-07T23:30:34.934Z,44.97
2023-06-07T23:33:03.079Z,44.97
2023-06-07T23:35:30.541Z,45.11
2023-06-07T23:37:57.976Z,44.82
2023-06-07T23:40:25.108Z,45.14
2023-06-07T23:42:53.688Z,44.94
2023-06-07T23:45:24.160Z,44.94
2023-06-07T23:47:51.437Z,44.96
2023-06-07T23:50:18.584Z,45.40
2023-06-07T23:52:45.804Z,45.30
2023-06-07T23:55:14.683Z,45.58
2023-06-07T23:57:42.016Z,45.18
